RJFE(METAR)
05/21 19:00
METAR RJFE 211000Z 34008KT 9999 FEW030 19/17 Q1007 RMK 1CU030 A2976=
戻る
トップページへ戻る
IMOC Co,.Ltd.